Time;durP1;ratioP1;P1;durP2;ratioP2;P2;SDS_P1;SDS_P2;PMS_P1;PMS_P2;Temp;Humidity;BMP_temperature;BMP_pressure;BME280_temperature;BME280_humidity;BME280_pressure;Samples;Min_cycle;Max_cycle;Signal;HPM_P1;HPM_P2
2021/03/09 00:04:56;;;;;;;46.13;19.65;;;;;;;-3.76;78.29;100475.94;253510;1105;115930;-63
2021/03/09 00:10:00;;;;;;;44.80;19.65;;;;;;;-3.87;79.01;100469.94;254293;1105;115130;-63
2021/03/09 00:15:03;;;;;;;43.30;22.20;;;;;;;-3.98;78.13;100467.39;254822;1104;115158;-63
2021/03/09 00:20:08;;;;;;;49.88;24.47;;;;;;;-4.04;78.52;100473.91;254360;1105;115648;-63
2021/03/09 00:25:11;;;;;;;40.95;18.92;;;;;;;-4.13;78.65;100472.04;254349;1105;115732;-65
2021/03/09 00:30:15;;;;;;;50.28;23.00;;;;;;;-4.15;78.98;100477.37;254324;1104;115460;-68
2021/03/09 00:35:18;;;;;;;40.10;19.87;;;;;;;-4.15;79.59;100484.34;254471;1104;115201;-66
2021/03/09 00:40:21;;;;;;;39.00;17.95;;;;;;;-4.14;79.71;100483.41;251645;1105;115392;-63
2021/03/09 00:45:24;;;;;;;43.48;16.62;;;;;;;-4.16;80.75;100488.73;254156;1104;115043;-63
2021/03/09 00:50:33;;;;;;;30.77;16.82;;;;;;;-4.19;81.11;100482.94;252333;1105;115975;-62
2021/03/09 00:55:37;;;;;;;29.10;14.90;;;;;;;-4.27;81.82;100474.90;252853;1104;115189;-64
2021/03/09 01:00:41;;;;;;;27.70;16.30;;;;;;;-4.30;80.54;100478.60;253281;1105;117132;-61
2021/03/09 01:05:45;;;;;;;30.23;17.30;;;;;;;-4.26;81.41;100471.34;251875;1105;115828;-64
2021/03/09 01:10:49;;;;;;;34.43;16.57;;;;;;;-4.28;81.60;100465.47;253431;1105;115415;-65
2021/03/09 01:15:53;;;;;;;37.30;18.37;;;;;;;-4.28;81.12;100470.67;252047;1105;115010;-66
2021/03/09 01:20:57;;;;;;;57.00;24.92;;;;;;;-4.37;80.92;100463.59;252310;1105;115825;-66
2021/03/09 01:26:01;;;;;;;64.10;31.12;;;;;;;-4.42;80.07;100461.34;252295;1105;115283;-66
2021/03/09 01:31:05;;;;;;;61.60;25.08;;;;;;;-4.48;81.38;100454.84;252123;1105;115311;-66
2021/03/09 01:36:10;;;;;;;61.18;25.90;;;;;;;-4.53;82.13;100448.34;252226;1105;115616;-67
2021/03/09 01:41:14;;;;;;;63.00;25.43;;;;;;;-4.58;80.92;100442.66;252434;1105;115245;-65
2021/03/09 01:46:21;;;;;;;69.03;29.18;;;;;;;-4.58;82.15;100446.09;252254;1105;115515;-64
2021/03/09 01:51:25;;;;;;;;;;;;;;;-4.52;81.15;100450.82;252985;1105;115476;-65
2021/03/09 01:56:29;;;;;;;58.15;25.77;;;;;;;-4.54;82.35;100442.31;254057;1105;104229;-66
2021/03/09 02:01:34;;;;;;;58.20;22.05;;;;;;;-4.50;79.88;100443.72;253396;1104;115582;-67
2021/03/09 02:06:39;;;;;;;50.88;26.45;;;;;;;-4.44;79.91;100438.04;254055;1104;116385;-67
2021/03/09 02:11:55;;;;;;;43.15;18.87;;;;;;;-4.47;79.67;100440.05;253559;1104;119895;-66
2021/03/09 02:17:08;;;;;;;45.75;20.45;;;;;;;-4.57;78.85;100439.11;253631;1104;115415;-67
2021/03/09 02:22:54;;;;;;;40.12;19.15;;;;;;;-4.65;79.26;100441.52;253842;1105;115642;-68
2021/03/09 02:28:25;;;;;;;40.15;20.43;;;;;;;-4.80;80.87;100443.52;254184;1104;115798;-67
2021/03/09 02:33:34;;;;;;;38.13;18.40;;;;;;;-4.72;80.27;100438.56;254575;1105;115289;-67
2021/03/09 02:38:45;;;;;;;40.95;20.20;;;;;;;-4.72;78.49;100437.73;254048;1104;115626;-67
2021/03/09 02:43:53;;;;;;;46.40;21.37;;;;;;;-4.87;78.45;100439.73;254560;1104;137999;-67
2021/03/09 02:48:57;;;;;;;37.98;17.70;;;;;;;-4.93;80.52;100441.06;253767;1104;116104;-64
2021/03/09 02:54:03;;;;;;;39.48;17.80;;;;;;;-5.02;80.15;100443.53;253239;1104;115241;-65
2021/03/09 02:59:16;;;;;;;35.05;18.45;;;;;;;-5.03;79.91;100453.11;252502;1105;115970;-65
2021/03/09 03:04:22;;;;;;;39.20;19.50;;;;;;;-5.08;80.54;100447.43;253338;1104;115240;-64
2021/03/09 03:09:26;;;;;;;32.58;18.07;;;;;;;-5.13;80.60;100450.37;253283;1104;116158;-64
2021/03/09 03:14:31;;;;;;;38.53;18.32;;;;;;;-5.07;79.82;100454.28;252849;1104;115429;-64
2021/03/09 03:19:36;;;;;;;50.80;23.38;;;;;;;-5.21;80.52;100454.52;252742;1105;116206;-65
2021/03/09 03:24:39;;;;;;;50.13;23.67;;;;;;;-5.26;81.33;100448.84;252606;1105;115668;-64
2021/03/09 03:29:43;;;;;;;48.40;22.87;;;;;;;-5.25;80.51;100453.09;252702;1105;116635;-67
2021/03/09 03:34:48;;;;;;;48.38;24.32;;;;;;;-5.27;83.18;100448.02;252604;1105;115091;-66
2021/03/09 03:39:51;;;;;;;50.78;25.45;;;;;;;-5.21;81.81;100447.55;252720;1105;115229;-66
2021/03/09 03:44:54;;;;;;;50.15;25.80;;;;;;;-5.15;81.56;100452.26;252927;1105;116272;-66
2021/03/09 03:49:58;;;;;;;50.63;26.73;;;;;;;-5.19;83.13;100445.63;251925;1105;115365;-65
2021/03/09 03:55:21;;;;;;;64.55;30.30;;;;;;;-5.14;83.96;100456.52;252695;1104;118598;-65
2021/03/09 04:00:28;;;;;;;56.37;27.07;;;;;;;-5.10;83.08;100452.74;252286;1104;115588;-64
2021/03/09 04:05:33;;;;;;;68.42;31.60;;;;;;;-5.05;82.80;100454.16;253233;1104;115329;-64
2021/03/09 04:10:39;;;;;;;68.42;34.33;;;;;;;-5.00;82.14;100446.84;252464;1105;115118;-63
2021/03/09 04:15:45;;;;;;;69.43;31.47;;;;;;;-4.97;82.70;100441.41;252549;1105;116203;-63
2021/03/09 04:20:51;;;;;;;81.75;37.70;;;;;;;-4.94;82.38;100442.01;253259;1105;115334;-65
2021/03/09 04:25:56;;;;;;;68.37;33.83;;;;;;;-4.93;81.92;100432.44;252350;1105;115129;-64
2021/03/09 04:31:02;;;;;;;72.60;32.95;;;;;;;-4.96;83.18;100428.30;254409;1105;115501;-62
2021/03/09 04:36:07;;;;;;;78.02;36.60;;;;;;;-4.98;83.42;100431.96;254795;1104;116087;-65
2021/03/09 04:41:12;;;;;;;78.95;39.98;;;;;;;-4.97;82.90;100436.22;252044;1105;117142;-63
2021/03/09 04:46:16;;;;;;;80.32;40.45;;;;;;;-4.91;82.25;100430.55;253998;1103;115725;-65
2021/03/09 04:51:20;;;;;;;73.28;36.55;;;;;;;-4.88;82.53;100438.08;254583;1105;115288;-64
2021/03/09 04:56:24;;;;;;;90.05;38.65;;;;;;;-4.85;83.42;100432.64;251942;1105;116207;-64
2021/03/09 05:01:28;;;;;;;78.10;38.13;;;;;;;-4.80;82.29;100436.55;253934;1104;116738;-64
2021/03/09 05:06:33;;;;;;;77.92;38.53;;;;;;;-4.81;82.93;100428.86;253096;1104;117030;-64
2021/03/09 05:11:37;;;;;;;93.40;45.95;;;;;;;-4.78;83.73;100441.63;252605;1105;115915;-66
2021/03/09 05:16:40;;;;;;;82.67;42.58;;;;;;;-4.68;83.36;100439.98;253014;1104;116577;-64
2021/03/09 05:21:44;;;;;;;86.57;46.40;;;;;;;-4.58;82.47;100446.09;252806;1104;116555;-64
2021/03/09 05:26:48;;;;;;;111.00;49.88;;;;;;;-4.52;83.90;100450.82;251763;1105;117624;-66
2021/03/09 05:31:51;;;;;;;111.57;54.58;;;;;;;-4.47;84.21;100451.29;252594;1105;117485;-64
2021/03/09 05:36:57;;;;;;;94.25;53.87;;;;;;;-4.42;82.42;100448.33;252337;1105;116836;-64
2021/03/09 05:42:00;;;;;;;149.50;72.65;;;;;;;-4.33;83.62;100444.18;251731;1105;116090;-64
2021/03/09 05:47:05;;;;;;;154.65;74.37;;;;;;;-4.26;83.56;100451.35;251933;1105;117057;-64
2021/03/09 05:52:09;;;;;;;152.38;72.12;;;;;;;-4.15;83.96;100453.11;252460;1105;116321;-64
2021/03/09 05:57:14;;;;;;;138.25;65.15;;;;;;;-3.97;82.45;100459.42;252308;1105;116292;-63
2021/03/09 06:02:17;;;;;;;124.55;63.17;;;;;;;-3.88;83.71;100457.86;252012;1105;116442;-64
2021/03/09 06:07:21;;;;;;;117.75;57.90;;;;;;;-3.75;84.07;100450.72;252354;1105;117122;-64
2021/03/09 06:12:25;;;;;;;112.00;56.95;;;;;;;-3.59;81.41;100465.91;252995;1105;116287;-67
2021/03/09 06:17:35;;;;;;;91.63;48.28;;;;;;;-3.47;82.30;100460.52;252683;1105;116330;-66
2021/03/09 06:22:59;;;;;;;89.40;44.20;;;;;;;-3.31;82.75;100465.27;252955;1105;116188;-66
2021/03/09 06:28:10;;;;;;;96.30;52.43;;;;;;;-3.13;81.94;100466.35;252400;1105;116205;-62
2021/03/09 06:33:27;;;;;;;88.42;46.45;;;;;;;-2.81;80.20;100470.63;254858;1104;115954;-62
2021/03/09 06:38:32;;;;;;;113.37;51.07;;;;;;;-2.64;79.51;100474.38;252574;1105;116675;-64
2021/03/09 06:43:42;;;;;;;91.70;48.40;;;;;;;-2.59;82.33;100485.26;254599;1104;115596;-62
2021/03/09 06:48:48;;;;;;;118.80;59.08;;;;;;;-2.45;80.13;100474.47;254695;1104;115847;-63
2021/03/09 06:54:06;;;;;;;97.70;51.43;;;;;;;-2.27;80.87;100485.91;253902;1105;115708;-63
2021/03/09 06:59:20;;;;;;;118.95;60.55;;;;;;;-2.04;80.66;100478.66;254410;1104;115094;-62
2021/03/09 07:04:23;;;;;;;101.00;51.95;;;;;;;-1.81;80.01;100485.27;252584;1104;115891;-64
2021/03/09 07:09:27;;;;;;;70.33;40.23;;;;;;;-1.63;79.02;100484.59;252809;1105;115527;-65
2021/03/09 07:14:32;;;;;;;52.95;29.70;;;;;;;-1.44;77.94;100480.17;253460;1105;115316;-65
2021/03/09 07:19:37;;;;;;;35.28;20.77;;;;;;;-1.17;77.86;100481.22;252813;1105;116597;-62
2021/03/09 07:24:59;;;;;;;39.18;23.00;;;;;;;-0.75;76.72;100481.66;252420;1105;116377;-62
2021/03/09 07:30:05;;;;;;;50.67;26.52;;;;;;;-0.32;74.64;100475.00;251591;1105;116767;-64
2021/03/09 07:35:10;;;;;;;42.47;26.63;;;;;;;-0.06;72.98;100482.00;252327;1105;117153;-64
2021/03/09 07:40:16;;;;;;;47.88;25.12;;;;;;;0.09;70.53;100474.43;252694;1105;117482;-65
2021/03/09 07:45:24;;;;;;;39.48;21.80;;;;;;;0.24;68.36;100480.81;252517;1105;117006;-65
2021/03/09 07:50:38;;;;;;;32.87;18.20;;;;;;;0.34;65.35;100489.41;251748;1105;116179;-63
2021/03/09 07:55:41;;;;;;;33.70;18.35;;;;;;;0.45;66.61;100483.12;251983;1105;116440;-66
2021/03/09 08:00:57;;;;;;;22.60;14.23;;;;;;;0.64;66.58;100480.31;252758;1104;177198;-66
2021/03/09 08:06:04;;;;;;;23.60;13.45;;;;;;;0.74;60.12;100474.98;252814;1105;116710;-66
2021/03/09 08:11:24;;;;;;;25.60;13.60;;;;;;;0.86;63.33;100479.02;253233;1104;116206;-62
2021/03/09 08:16:26;;;;;;;22.33;12.20;;;;;;;0.92;61.41;100477.55;252484;1105;115760;-63
2021/03/09 08:21:52;;;;;;;19.32;10.05;;;;;;;0.99;59.05;100470.71;252880;1105;116244;-66
2021/03/09 08:26:54;;;;;;;31.02;15.00;;;;;;;1.37;61.32;100471.25;252875;1104;115895;-65
2021/03/09 08:32:34;;;;;;;27.65;12.90;;;;;;;1.74;59.62;100468.27;252339;1105;116373;-63
2021/03/09 08:37:42;;;;;;;18.20;9.58;;;;;;;1.77;54.98;100465.33;251666;1105;124614;-63
2021/03/09 08:43:03;;;;;;;11.88;6.85;;;;;;;1.65;53.33;100467.42;253656;1104;117217;-63
2021/03/09 08:48:11;;;;;;;12.80;5.35;;;;;;;1.85;50.65;100466.16;251854;1105;117051;-62
2021/03/09 08:53:31;;;;;;;13.60;6.22;;;;;;;1.90;53.93;100463.05;254452;1105;120014;-66
2021/03/09 08:58:41;;;;;;;25.97;11.55;;;;;;;1.91;54.09;100469.95;253820;1105;116829;-64
2021/03/09 09:03:45;;;;;;;14.75;9.88;;;;;;;1.81;52.43;100467.48;254967;1105;116486;-64
2021/03/09 09:08:48;;;;;;;16.32;7.87;;;;;;;1.95;54.27;100460.77;252496;1105;116398;-65
2021/03/09 09:13:51;;;;;;;17.32;8.08;;;;;;;2.08;53.19;100461.13;252797;1104;115549;-66
2021/03/09 09:18:53;;;;;;;7.20;4.43;;;;;;;2.08;53.08;100458.50;251425;1105;195207;-64
2021/03/09 09:23:56;;;;;;;14.15;9.23;;;;;;;2.32;54.57;100450.63;252680;1105;115396;-65
2021/03/09 09:29:03;;;;;;;14.15;8.55;;;;;;;2.52;52.58;100450.28;252535;1105;116205;-66
2021/03/09 09:34:07;;;;;;;6.67;4.40;;;;;;;2.71;51.85;100452.59;253349;1104;115533;-66
2021/03/09 09:39:09;;;;;;;10.93;4.85;;;;;;;3.06;53.89;100455.83;252887;1105;115377;-65
2021/03/09 09:44:12;;;;;;;8.68;6.25;;;;;;;3.20;49.47;100457.75;251998;1105;115326;-66
2021/03/09 09:49:14;;;;;;;12.55;7.53;;;;;;;3.07;50.40;100452.99;251943;1105;115426;-65
2021/03/09 09:54:17;;;;;;;9.20;6.92;;;;;;;3.29;47.81;100454.10;252434;1105;114903;-63
2021/03/09 09:59:27;;;;;;;9.00;5.65;;;;;;;3.51;49.76;100448.08;251988;1105;117155;-62
2021/03/09 10:04:34;;;;;;;10.40;5.55;;;;;;;3.47;47.47;100440.68;251664;1105;116487;-68
2021/03/09 10:09:38;;;;;;;9.15;4.45;;;;;;;3.61;47.09;100438.16;251653;1104;115134;-64
2021/03/09 10:14:51;;;;;;;9.63;6.65;;;;;;;3.89;47.41;100433.22;252240;1105;115530;-64
2021/03/09 10:19:55;;;;;;;3.65;3.05;;;;;;;3.76;44.28;100430.31;252658;1105;116737;-66
2021/03/09 10:25:12;;;;;;;15.30;5.27;;;;;;;3.99;44.41;100432.97;252005;1105;114700;-64
2021/03/09 10:30:18;;;;;;;6.15;4.50;;;;;;;4.16;42.92;100429.23;252129;1105;117591;-66
2021/03/09 10:35:27;;;;;;;9.53;4.55;;;;;;;4.04;42.54;100423.54;251812;1105;116384;-68
2021/03/09 10:40:34;;;;;;;5.55;3.92;;;;;;;3.90;42.76;100421.67;252543;1105;117065;-63
2021/03/09 10:45:39;;;;;;;6.80;3.12;;;;;;;3.90;43.09;100423.48;254560;1104;114743;-64
2021/03/09 10:50:43;;;;;;;9.43;4.03;;;;;;;3.84;43.10;100418.91;253610;1105;115423;-64
2021/03/09 10:55:46;;;;;;;8.83;3.22;;;;;;;3.83;39.24;100411.98;254546;1105;115603;-65
2021/03/09 11:00:49;;;;;;;4.12;2.65;;;;;;;3.63;37.87;100415.08;254118;1104;115006;-67
2021/03/09 11:05:52;;;;;;;5.47;3.17;;;;;;;3.75;38.18;100409.39;253833;1105;116253;-64
2021/03/09 11:10:55;;;;;;;3.08;1.90;;;;;;;3.73;36.96;100407.75;254547;1104;115360;-66
2021/03/09 11:15:58;;;;;;;2.65;2.20;;;;;;;4.04;39.67;100406.89;254554;1104;114875;-64
2021/03/09 11:21:02;;;;;;;4.17;2.35;;;;;;;4.00;37.31;100409.05;253979;1104;115168;-64
2021/03/09 11:26:08;;;;;;;2.60;2.30;;;;;;;3.81;38.44;100393.70;252469;1105;115317;-67
2021/03/09 11:31:11;;;;;;;7.37;4.00;;;;;;;3.59;37.09;100395.33;252542;1105;115785;-65
2021/03/09 11:36:14;;;;;;;5.00;3.30;;;;;;;3.53;37.71;100385.47;252489;1105;115873;-65
2021/03/09 11:41:20;;;;;;;3.15;2.85;;;;;;;3.43;36.54;100384.85;252686;1105;115364;-67
2021/03/09 11:46:24;;;;;;;5.45;4.25;;;;;;;3.43;37.54;100389.30;251494;1105;115885;-64
2021/03/09 11:51:27;;;;;;;5.62;3.25;;;;;;;3.39;38.96;100380.91;252355;1105;115481;-66
2021/03/09 11:56:30;;;;;;;4.15;2.85;;;;;;;3.41;42.31;100378.11;252958;1105;117808;-65
2021/03/09 12:01:33;;;;;;;7.35;2.87;;;;;;;3.38;38.01;100368.73;252282;1105;115631;-67
2021/03/09 12:06:37;;;;;;;4.85;4.33;;;;;;;3.06;39.45;100361.80;252482;1105;117497;-66
2021/03/09 12:11:39;;;;;;;6.28;3.42;;;;;;;3.11;38.79;100363.92;252051;1104;118272;-66
2021/03/09 12:16:42;;;;;;;3.27;2.72;;;;;;;3.07;38.58;100360.80;251633;1105;116775;-64
2021/03/09 12:21:45;;;;;;;5.55;3.95;;;;;;;3.09;39.87;100350.09;251581;1105;116130;-64
2021/03/09 12:26:48;;;;;;;6.25;3.70;;;;;;;3.00;37.71;100342.25;252813;1105;117681;-68
2021/03/09 12:31:50;;;;;;;7.22;4.10;;;;;;;2.91;39.80;100342.44;251488;1105;116314;-63
2021/03/09 12:36:53;;;;;;;11.25;5.00;;;;;;;2.74;42.53;100319.81;251425;1105;117583;-66
2021/03/09 12:41:56;;;;;;;9.48;5.62;;;;;;;2.73;42.10;100326.06;251716;1105;117613;-63
2021/03/09 12:47:03;;;;;;;7.25;4.92;;;;;;;2.59;40.64;100325.77;251700;1105;118076;-64
2021/03/09 12:52:07;;;;;;;13.80;6.72;;;;;;;2.57;42.73;100322.47;251532;1105;116513;-64
2021/03/09 12:57:10;;;;;;;15.35;5.58;;;;;;;2.46;41.30;100322.81;253251;1104;116212;-67
2021/03/09 13:02:14;;;;;;;12.25;6.15;;;;;;;2.32;39.87;100313.82;253416;1104;117913;-62
2021/03/09 13:07:17;;;;;;;8.88;5.15;;;;;;;2.30;41.94;100307.08;254489;1104;115917;-62
2021/03/09 13:12:19;;;;;;;7.08;3.55;;;;;;;2.42;45.59;100305.75;254589;1105;115865;-63
2021/03/09 13:17:22;;;;;;;7.25;4.10;;;;;;;2.31;40.75;100309.55;254650;1104;115992;-66
2021/03/09 13:22:25;;;;;;;13.73;5.93;;;;;;;2.34;40.73;100296.06;254664;1105;115205;-65
2021/03/09 13:27:28;;;;;;;8.90;4.53;;;;;;;2.34;42.75;100298.69;254787;1104;116372;-63
2021/03/09 13:32:31;;;;;;;4.62;3.65;;;;;;;2.31;42.15;100299.02;253375;1104;116400;-66
2021/03/09 13:37:34;;;;;;;7.85;5.15;;;;;;;2.31;40.96;100298.20;252448;1105;116244;-65
2021/03/09 13:42:38;;;;;;;4.50;3.55;;;;;;;2.34;41.72;100288.17;252242;1105;206746;-62
2021/03/09 13:47:41;;;;;;;9.48;5.85;;;;;;;2.35;40.14;100276.66;251504;1105;115912;-62
2021/03/09 13:52:45;;;;;;;10.38;5.10;;;;;;;2.33;40.97;100283.89;252542;1105;117945;-63
2021/03/09 13:57:48;;;;;;;5.37;2.90;;;;;;;2.39;41.39;100285.04;252290;1105;115635;-64
2021/03/09 14:02:54;;;;;;;10.15;5.72;;;;;;;2.60;45.27;100284.47;252169;1105;115696;-64
2021/03/09 14:07:58;;;;;;;19.60;10.23;;;;;;;2.66;40.32;100281.98;252649;1105;116010;-62
2021/03/09 14:13:01;;;;;;;16.50;9.73;;;;;;;2.86;41.74;100271.86;251627;1105;116826;-61
2021/03/09 14:18:06;;;;;;;6.47;4.35;;;;;;;2.85;40.72;100262.31;251916;1105;115662;-62
2021/03/09 14:23:10;;;;;;;5.50;4.33;;;;;;;2.86;41.19;100257.87;253311;1105;116098;-64
2021/03/09 14:28:14;;;;;;;9.33;3.98;;;;;;;2.69;40.51;100257.14;251614;1105;116707;-64
2021/03/09 14:33:18;;;;;;;10.08;5.08;;;;;;;2.61;39.19;100254.53;252979;1105;116924;-67
2021/03/09 14:38:25;;;;;;;6.67;5.08;;;;;;;2.36;43.80;100251.17;252324;1105;116241;-65
2021/03/09 14:43:28;;;;;;;14.28;3.42;;;;;;;2.20;41.40;100259.08;251249;1105;118057;-64
2021/03/09 14:48:33;;;;;;;6.80;4.12;;;;;;;2.14;40.69;100250.05;252894;1105;117067;-65
2021/03/09 14:53:39;;;;;;;3.10;1.85;;;;;;;2.08;41.55;100240.23;252288;1105;115587;-63
2021/03/09 14:58:42;;;;;;;11.57;5.78;;;;;;;2.02;42.75;100241.71;253036;1104;115121;-63
2021/03/09 15:03:46;;;;;;;11.80;6.42;;;;;;;2.04;41.80;100238.91;254428;1104;114709;-63
2021/03/09 15:08:51;;;;;;;12.13;6.78;;;;;;;2.17;44.70;100233.12;254428;1105;115467;-64
2021/03/09 15:13:54;;;;;;;7.62;5.75;;;;;;;2.18;43.22;100238.21;254135;1105;115723;-64
2021/03/09 15:18:58;;;;;;;10.28;4.40;;;;;;;2.12;44.17;100238.91;254641;1105;137329;-62
2021/03/09 15:24:01;;;;;;;7.75;4.65;;;;;;;2.06;40.29;100230.86;254621;1104;115747;-64
2021/03/09 15:29:05;;;;;;;11.35;6.40;;;;;;;2.02;43.77;100227.74;254140;1105;115978;-63
2021/03/09 15:34:09;;;;;;;9.20;5.87;;;;;;;1.89;43.24;100235.31;254104;1104;116256;-61
2021/03/09 15:39:13;;;;;;;14.13;7.28;;;;;;;1.81;45.36;100223.02;253488;1105;114895;-61
2021/03/09 15:44:16;;;;;;;15.80;8.73;;;;;;;1.68;43.64;100223.52;253431;1104;116505;-62
2021/03/09 15:49:20;;;;;;;13.43;7.55;;;;;;;1.54;45.13;100223.34;254019;1104;114717;-62
2021/03/09 15:54:24;;;;;;;19.55;9.45;;;;;;;1.48;46.80;100216.96;252845;1105;115403;-62
2021/03/09 15:59:28;;;;;;;26.52;14.35;;;;;;;1.34;44.33;100228.11;253778;1104;117135;-63
2021/03/09 16:04:31;;;;;;;19.95;10.63;;;;;;;1.25;46.54;100229.89;252409;1105;115822;-61
2021/03/09 16:09:34;;;;;;;25.37;13.03;;;;;;;1.16;48.00;100235.31;251262;1105;116535;-66
2021/03/09 16:14:39;;;;;;;21.17;11.50;;;;;;;0.93;50.46;100224.59;253600;1105;117413;-62
2021/03/09 16:19:42;;;;;;;25.70;11.40;;;;;;;0.74;50.76;100233.56;252365;1105;116856;-61
2021/03/09 16:24:47;;;;;;;24.60;16.15;;;;;;;0.55;50.59;100226.79;251952;1105;116906;-61
2021/03/09 16:29:51;;;;;;;24.87;14.45;;;;;;;0.36;53.71;100234.06;252051;1104;116606;-61
2021/03/09 16:34:55;;;;;;;24.55;15.75;;;;;;;0.13;53.70;100234.61;252536;1105;115973;-60
2021/03/09 16:39:59;;;;;;;23.98;16.87;;;;;;;-0.01;58.19;100243.87;252642;1105;116508;-61
2021/03/09 16:45:08;;;;;;;18.37;11.43;;;;;;;-0.10;56.81;100246.59;252804;1104;117016;-60
2021/03/09 16:50:13;;;;;;;19.77;9.43;;;;;;;-0.24;56.50;100249.75;253004;1105;117016;-64
2021/03/09 16:55:18;;;;;;;15.55;10.65;;;;;;;-0.40;58.70;100253.08;251644;1105;116359;-67
2021/03/09 17:00:22;;;;;;;19.42;8.68;;;;;;;-0.53;60.67;100263.93;253106;1105;117214;-64
2021/03/09 17:05:25;;;;;;;25.82;12.45;;;;;;;-0.65;60.61;100265.14;253162;1104;117144;-63
2021/03/09 17:10:31;;;;;;;20.82;10.58;;;;;;;-0.75;55.20;100264.39;254474;1105;117408;-61
2021/03/09 17:15:35;;;;;;;28.23;10.80;;;;;;;-0.87;58.17;100266.39;253419;1104;116159;-64
2021/03/09 17:20:38;;;;;;;16.17;9.38;;;;;;;-0.93;58.52;100271.41;254648;1104;117988;-63
2021/03/09 17:25:40;;;;;;;18.10;10.80;;;;;;;-0.94;58.01;100267.15;254771;1104;117363;-64
2021/03/09 17:30:43;;;;;;;23.85;13.35;;;;;;;-0.99;60.18;100277.23;254910;1104;117791;-64
2021/03/09 17:35:48;;;;;;;33.83;15.15;;;;;;;-1.04;60.06;100275.05;254479;1104;115546;-62
2021/03/09 17:40:52;;;;;;;27.73;14.83;;;;;;;-1.02;58.98;100281.78;254768;1105;115892;-63
2021/03/09 17:45:56;;;;;;;44.70;21.42;;;;;;;-0.99;61.06;100278.05;253692;1105;115622;-62
2021/03/09 17:51:00;;;;;;;52.88;26.70;;;;;;;-0.99;63.25;100279.84;253894;1105;115564;-61
2021/03/09 17:56:04;;;;;;;59.58;29.48;;;;;;;-1.05;62.99;100281.25;254517;1104;115679;-63
2021/03/09 18:01:07;;;;;;;77.12;34.78;;;;;;;-1.16;63.22;100277.03;253484;1105;116816;-63
2021/03/09 18:06:10;;;;;;;85.72;41.35;;;;;;;-1.19;62.16;100276.50;253571;1104;115255;-62
2021/03/09 18:11:14;;;;;;;96.07;40.90;;;;;;;-1.18;62.86;100286.81;252867;1104;115313;-63
2021/03/09 18:16:18;;;;;;;50.90;23.67;;;;;;;-1.16;67.62;100287.50;252535;1105;116303;-64
2021/03/09 18:21:22;;;;;;;46.33;24.92;;;;;;;-1.22;68.09;100297.74;253048;1104;116105;-63
2021/03/09 18:26:25;;;;;;;86.53;45.15;;;;;;;-1.33;65.68;100300.53;251407;1105;116102;-62
2021/03/09 18:31:29;;;;;;;118.55;55.17;;;;;;;-1.45;63.24;100299.89;252035;1105;115712;-63
2021/03/09 18:36:34;;;;;;;128.78;61.28;;;;;;;-1.55;62.22;100292.10;252652;1104;116657;-61
2021/03/09 18:41:38;;;;;;;155.20;65.97;;;;;;;-1.57;62.47;100295.82;252042;1105;116658;-63
2021/03/09 18:46:42;;;;;;;189.47;80.10;;;;;;;-1.59;62.32;100301.19;251868;1105;116231;-61
2021/03/09 18:51:45;;;;;;;182.95;74.12;;;;;;;-1.58;62.09;100302.84;252065;1105;116583;-61
2021/03/09 18:56:48;;;;;;;135.63;61.90;;;;;;;-1.55;62.73;100296.50;251685;1105;116458;-61
2021/03/09 19:01:52;;;;;;;111.32;48.45;;;;;;;-1.51;60.27;100295.22;250721;1105;116284;-60
2021/03/09 19:06:55;;;;;;;58.23;30.08;;;;;;;-1.44;58.59;100293.69;251841;1105;117584;-62
2021/03/09 19:11:58;;;;;;;47.30;22.70;;;;;;;-1.43;57.43;100293.55;252020;1105;116932;-62
2021/03/09 19:17:02;;;;;;;57.17;23.83;;;;;;;-1.42;58.12;100294.37;252643;1105;116474;-63
2021/03/09 19:22:06;;;;;;;45.03;21.90;;;;;;;-1.52;56.77;100304.86;251779;1105;116664;-64
2021/03/09 19:27:10;;;;;;;52.85;24.00;;;;;;;-1.61;56.57;100302.30;254698;1105;117824;-61
2021/03/09 19:32:14;;;;;;;50.80;21.40;;;;;;;-1.69;55.85;100300.39;254714;1104;116946;-62
2021/03/09 19:37:17;;;;;;;40.17;18.30;;;;;;;-1.74;56.18;100313.05;254889;1105;115823;-63
2021/03/09 19:42:21;;;;;;;32.57;15.07;;;;;;;-1.79;56.87;100317.88;254801;1104;115548;-63
2021/03/09 19:47:24;;;;;;;29.07;16.35;;;;;;;-1.82;56.30;100315.54;254934;1105;116094;-64
2021/03/09 19:52:28;;;;;;;40.60;20.00;;;;;;;-1.86;56.69;100311.59;254480;1105;116275;-62
2021/03/09 19:57:31;;;;;;;41.45;20.85;;;;;;;-1.92;55.50;100310.36;252538;1105;116329;-64
2021/03/09 20:02:35;;;;;;;41.75;20.48;;;;;;;-1.92;55.52;100315.58;253356;1105;116805;-64
2021/03/09 20:07:38;;;;;;;42.00;22.02;;;;;;;-1.98;56.96;100316.13;254228;1104;117282;-63
2021/03/09 20:12:42;;;;;;;34.75;16.80;;;;;;;-2.06;59.11;100316.83;252502;1105;115655;-65
2021/03/09 20:17:46;;;;;;;35.97;19.80;;;;;;;-2.07;56.33;100317.78;252882;1105;117158;-62
2021/03/09 20:22:51;;;;;;;33.13;17.53;;;;;;;-2.11;60.44;100316.41;252499;1105;115135;-64
2021/03/09 20:27:56;;;;;;;47.85;18.92;;;;;;;-2.17;56.88;100316.17;253292;1105;117087;-62
2021/03/09 20:33:00;;;;;;;38.15;19.17;;;;;;;-2.25;58.04;100313.41;253030;1104;115088;-64
2021/03/09 20:38:04;;;;;;;28.97;14.87;;;;;;;-2.32;58.72;100314.92;252626;1105;116183;-63
2021/03/09 20:43:08;;;;;;;32.60;15.78;;;;;;;-2.32;61.04;100317.53;251628;1105;114982;-61
2021/03/09 20:48:12;;;;;;;37.73;16.27;;;;;;;-2.33;60.66;100318.50;251313;1105;118142;-65
2021/03/09 20:53:15;;;;;;;37.55;16.37;;;;;;;-2.30;60.87;100316.44;252272;1105;116218;-63
2021/03/09 20:58:19;;;;;;;45.40;18.52;;;;;;;-2.25;59.42;100316.03;251890;1105;116119;-63
2021/03/09 21:03:22;;;;;;;36.85;18.27;;;;;;;-2.25;60.12;100314.24;251164;1106;116810;-64
2021/03/09 21:08:26;;;;;;;38.28;14.13;;;;;;;-2.22;60.82;100316.58;252443;1105;116550;-61
2021/03/09 21:13:29;;;;;;;34.48;17.55;;;;;;;-2.18;60.92;100314.52;252727;1105;116721;-61
2021/03/09 21:18:33;;;;;;;30.07;14.73;;;;;;;-2.15;60.68;100320.30;253444;1105;116818;-61
2021/03/09 21:23:37;;;;;;;32.60;16.25;;;;;;;-2.08;62.16;100310.09;252419;1105;118050;-62
2021/03/09 21:28:40;;;;;;;35.08;17.02;;;;;;;-2.04;61.82;100309.67;252033;1105;116579;-62
2021/03/09 21:33:44;;;;;;;37.20;16.70;;;;;;;-1.98;60.58;100307.47;253617;1105;116098;-62
2021/03/09 21:38:48;;;;;;;32.48;17.20;;;;;;;-1.97;60.44;100290.83;254219;1105;115067;-64
2021/03/09 21:44:09;;;;;;;39.27;15.58;;;;;;;-1.94;59.95;100295.78;252349;1105;115994;-63
2021/03/09 21:49:15;;;;;;;37.73;16.93;;;;;;;-1.92;59.25;100294.67;254600;1104;115563;-63
2021/03/09 21:54:19;;;;;;;36.73;15.50;;;;;;;-1.86;59.85;100293.30;254733;1104;115785;-64
2021/03/09 21:59:22;;;;;;;34.58;16.35;;;;;;;-1.87;58.39;100296.88;254725;1105;115482;-61
2021/03/09 22:04:25;;;;;;;42.55;20.25;;;;;;;-1.82;57.24;100292.84;254663;1104;115178;-63
2021/03/09 22:09:28;;;;;;;48.23;22.40;;;;;;;-1.73;58.63;100288.56;254869;1105;115532;-62
2021/03/09 22:14:32;;;;;;;39.53;17.07;;;;;;;-1.71;61.03;100282.23;253504;1105;116761;-63
2021/03/09 22:19:37;;;;;;;48.08;21.00;;;;;;;-1.68;58.55;100290.76;254769;1105;115863;-63
2021/03/09 22:24:40;;;;;;;39.45;18.55;;;;;;;-1.70;57.49;100288.28;253862;1105;115891;-63
2021/03/09 22:29:47;;;;;;;38.23;17.42;;;;;;;-1.79;57.79;100283.91;252761;1105;116582;-65
2021/03/09 22:34:52;;;;;;;31.20;16.47;;;;;;;-1.86;57.67;100283.67;252506;1104;116682;-64
2021/03/09 22:39:58;;;;;;;40.27;16.37;;;;;;;-1.97;57.42;100285.61;252868;1105;117285;-64
2021/03/09 22:45:02;;;;;;;36.00;18.60;;;;;;;-2.03;58.84;100281.77;252902;1104;137563;-63
2021/03/09 22:50:05;;;;;;;36.05;17.67;;;;;;;-2.01;59.52;100272.00;252701;1105;115437;-62